OITP

Details ICAO OITP (PFQ)
Name PARSABADE MOGHAN
Region Iran
Timezone Asia/Tehran (UTC+4.5)
Plans Departing 1
Arriving 2
Stats Elevation 253 ft / 77 m (AMSL)
Location 39.603673° 47.881496°
Runways 1
Magnetic Variation 6.041° E
Sunrise 2018-05-27 01:27:01 UTC / 2018-05-27 05:57:01 Local
Sunset 2018-05-27 16:07:05 UTC / 2018-05-27 20:37:05 Local
Advertisement - Login to hide

Runways

ID Width Length Bearing (true) Bearing (mag) Surface Threshold Offset Overrun Length
11 115 ft / 35 m 8,476 ft / 2,583 m 110.73° 104.69° Asphalt 0 ft / 0 m 0 ft / 0 m
29 115 ft / 35 m 8,476 ft / 2,583 m 290.75° 284.71° Asphalt 0 ft / 0 m 630 ft / 192 m

Map

Weather


0- 5 10 15 20 25 30 35+ Temperature / ° C

Clouds and Precipitation
Forecast for 2018-05-27 12:00 UTC. Updated 3 hours ago

Ground ~20,000 ft ~40,000 ft Winds

METAR

OITP 271400Z 13025KT CAVOK 19/12 Q1019

TAF

Not found

Frequencies

Tower 122.80 MHz INFO
Warning: Do not use this data for real-world aviation or navigation. No guarantee of current accuracy is given.